LYBE Airport Information

Runway Information
Runway 12 Length 11155 ft width 148 ft
Elevation 318 ft Threshold 0 ft Heading 122
Runway 30 Length 11155 ft Width 148 ft
Elevation 335 ft Threshold 1312 ft Heading 302
Airport Frequencies
Type APP Name APP Frequency 119.1 MHZ
Type ATIS Name INFO Frequency 122.925 MHZ
Type TWR Name TWR Frequency 118.1 MHZ
Airport Navaids
Type VOR-DME Name Beograd Frequency 112300 KHZ
Type NDB Name Beograd Frequency 316 KHZ
Type NDB Name Beograd Frequency 380 KHZ
Type NDB Name Beograd Frequency 355 KHZ
Airport Weather Information & NOTAM
ADDS - METARS form results

(1841 UTC 19 January 2019)
Data provider http://aviationweather.gov/metar/data/
 
METAR text: LYBE 191830Z 07005KT 9999 BKN030 02/00 Q1018 NOSIG
Conditions at: LYBE (BELGRADE/SURCIN , CS) observed 1830 UTC 19 January 2019
Temperature: 2.0°C (36°F)
Dewpoint: 0.0°C (32°F) [RH = 87%]
Pressure (altimeter): 30.06 inches Hg (1018.0 mb)
Winds: from the ENE (70 degrees) at 6 MPH (5 knots; 2.6 m/s)
Visibility: 6 or more miles (10+ km)
Ceiling: 3000 feet AGL
Clouds: broken clouds at 3000 feet AGL
Weather: no significant weather observed at this time

METAR text: LYBE 191800Z 07006KT 9999 -RA BKN023 02/00 Q1018 NOSIG
Conditions at: LYBE (BELGRADE/SURCIN , CS) observed 1800 UTC 19 January 2019
Temperature: 2.0°C (36°F)
Dewpoint: 0.0°C (32°F) [RH = 87%]
Pressure (altimeter): 30.06 inches Hg (1018.0 mb)
Winds: from the ENE (70 degrees) at 7 MPH (6 knots; 3.1 m/s)
Visibility: 6 or more miles (10+ km)
Ceiling: 2300 feet AGL
Clouds: broken clouds at 2300 feet AGL
Weather: -RA  (light rain)

Forecast for: LYBE (BELGRADE/SURCIN , CS)
Text: TAF LYBE 191700Z 1918/2018 13008KT 9999 BKN027 TX03/2012Z TN00/2005Z
Forecast period: 1800 UTC 19 January 2019 to 1800 UTC 20 January 2019
Forecast type: FROM: standard forecast or significant change
Winds: from the SE (130 degrees) at 9 MPH (8 knots; 4.1 m/s)
Visibility: 6 or more miles 10+ km)
Ceiling: 2700 feet AGL
Clouds: broken clouds at 2700 feet AGL
Weather: no significant weather forecast for this period
Text: TEMPO 2002/2011 4000 -RASN BKN010 BKN025
Forecast period: 0200 to 1100 UTC 20 January 2019
Forecast type: TEMPORARY: The following changes expected for less than half the time period
Visibility: 2.49 miles (4.01 km)
Ceiling: 1000 feet AGL
Clouds: broken clouds at 1000 feet AGL
broken clouds at 2500 feet AGL
Weather: -RA -SN  (light rain, light snow)